Exeter, Virginia
Current Conditions -  °F | °C
As of 5:55 PM on Thursday 18 Dec 2014 (Local Time) from KLNP Reporting Station
Overcast Overcast  
Wind Chill: 34°   Ceiling: 3500
Heat Index: 34°   Visibility: 10mi
Dew Point: 23°   Wind: 3mph
Humidity: 65%   Direction: 330°NNW
Pressure: 30.11"   Gusts: NA
Location:  36.9224°N, 82.7857°W
Report Text: KLNP 182255Z AUTO 33003KT 10SM BKN035 BKN042 OVC060 01/M05 A3011 RMK AO2
Loading
Personal Weather Stations






























Interactive Weather Map New forecast layout! Learn more

10-Day Weather Forecast

Advertisements
Track Severe Weather on mobile